sensor_id;sensor_type;location;lat;lon;timestamp;pressure;altitude;pressure_sealevel;temperature;humidity
25156;BME280;21913;52.456;13.634;2022-08-19T00:02:47;100025.63;;;22.82;65.83
25156;BME280;21913;52.456;13.634;2022-08-19T00:07:49;100031.84;;;22.81;65.70
25156;BME280;21913;52.456;13.634;2022-08-19T00:12:52;100030.06;;;22.81;65.67
25156;BME280;21913;52.456;13.634;2022-08-19T00:17:53;100050.31;;;22.81;65.88
25156;BME280;21913;52.456;13.634;2022-08-19T00:22:55;100042.41;;;22.81;65.76
25156;BME280;21913;52.456;13.634;2022-08-19T00:27:58;100046.75;;;22.82;65.79
25156;BME280;21913;52.456;13.634;2022-08-19T00:33:00;100049.56;;;22.79;65.87
25156;BME280;21913;52.456;13.634;2022-08-19T00:38:01;100048.63;;;22.80;65.78
25156;BME280;21913;52.456;13.634;2022-08-19T00:43:08;100038.91;;;22.80;65.77
25156;BME280;21913;52.456;13.634;2022-08-19T00:48:10;100034.56;;;22.79;65.72
25156;BME280;21913;52.456;13.634;2022-08-19T00:53:15;100031.94;;;22.79;65.98
25156;BME280;21913;52.456;13.634;2022-08-19T00:58:20;100022.25;;;22.80;65.76
25156;BME280;21913;52.456;13.634;2022-08-19T01:03:22;100020.53;;;22.79;65.77
25156;BME280;21913;52.456;13.634;2022-08-19T01:08:23;100026.72;;;22.78;65.79
25156;BME280;21913;52.456;13.634;2022-08-19T01:13:27;100026.72;;;22.78;65.84
25156;BME280;21913;52.456;13.634;2022-08-19T01:18:31;100026.72;;;22.78;65.85
25156;BME280;21913;52.456;13.634;2022-08-19T01:23:34;100041.69;;;22.77;65.99
25156;BME280;21913;52.456;13.634;2022-08-19T01:28:36;100037.25;;;22.78;66.07
25156;BME280;21913;52.456;13.634;2022-08-19T01:33:37;100030.28;;;22.77;65.99
25156;BME280;21913;52.456;13.634;2022-08-19T01:38:42;100015.31;;;22.77;65.84
25156;BME280;21913;52.456;13.634;2022-08-19T01:43:45;100012.75;;;22.76;65.94
25156;BME280;21913;52.456;13.634;2022-08-19T01:48:46;100006.56;;;22.77;65.92
25156;BME280;21913;52.456;13.634;2022-08-19T01:53:49;99982.91;;;22.75;65.97
25156;BME280;21913;52.456;13.634;2022-08-19T01:58:57;99983.75;;;22.76;65.78
25156;BME280;21913;52.456;13.634;2022-08-19T02:04:01;99989.13;;;22.74;65.92
25156;BME280;21913;52.456;13.634;2022-08-19T02:09:04;99984.69;;;22.75;65.81
25156;BME280;21913;52.456;13.634;2022-08-19T02:14:07;99994.31;;;22.76;65.80
25156;BME280;21913;52.456;13.634;2022-08-19T02:19:09;99973.28;;;22.74;65.94
25156;BME280;21913;52.456;13.634;2022-08-19T02:24:10;99987.41;;;22.73;65.93
25156;BME280;21913;52.456;13.634;2022-08-19T02:29:12;99990.91;;;22.74;65.79
25156;BME280;21913;52.456;13.634;2022-08-19T02:34:14;99998.81;;;22.74;66.12
25156;BME280;21913;52.456;13.634;2022-08-19T02:39:15;99999.66;;;22.74;66.06
25156;BME280;21913;52.456;13.634;2022-08-19T02:44:17;99983.84;;;22.74;66.04
25156;BME280;21913;52.456;13.634;2022-08-19T02:49:19;99976.88;;;22.73;66.10
25156;BME280;21913;52.456;13.634;2022-08-19T02:54:20;99976.03;;;22.73;65.95
25156;BME280;21913;52.456;13.634;2022-08-19T02:59:22;99996.22;;;22.72;65.99
25156;BME280;21913;52.456;13.634;2022-08-19T03:04:24;99996.22;;;22.72;65.96
25156;BME280;21913;52.456;13.634;2022-08-19T03:09:25;99998.03;;;22.72;66.08
25156;BME280;21913;52.456;13.634;2022-08-19T03:14:30;99995.47;;;22.70;65.99
25156;BME280;21913;52.456;13.634;2022-08-19T03:19:32;99992.75;;;22.72;66.14
25156;BME280;21913;52.456;13.634;2022-08-19T03:24:33;99998.97;;;22.71;66.16
25156;BME280;21913;52.456;13.634;2022-08-19T03:29:37;100005.09;;;22.71;66.00
25156;BME280;21913;52.456;13.634;2022-08-19T03:34:38;99999.91;;;22.70;66.08
25156;BME280;21913;52.456;13.634;2022-08-19T03:39:41;100004.22;;;22.71;66.12
25156;BME280;21913;52.456;13.634;2022-08-19T03:44:42;100013.94;;;22.70;66.13
25156;BME280;21913;52.456;13.634;2022-08-19T03:49:44;100020.13;;;22.69;66.10
25156;BME280;21913;52.456;13.634;2022-08-19T03:54:46;100021.06;;;22.68;66.02
25156;BME280;21913;52.456;13.634;2022-08-19T03:59:47;100027.13;;;22.70;66.16
25156;BME280;21913;52.456;13.634;2022-08-19T04:04:53;100026.25;;;22.70;66.22
25156;BME280;21913;52.456;13.634;2022-08-19T04:09:54;100026.34;;;22.68;66.03
25156;BME280;21913;52.456;13.634;2022-08-19T04:14:56;100026.34;;;22.68;65.92
25156;BME280;21913;52.456;13.634;2022-08-19T04:19:59;100027.28;;;22.67;66.10
25156;BME280;21913;52.456;13.634;2022-08-19T04:25:01;100027.19;;;22.69;66.36
25156;BME280;21913;52.456;13.634;2022-08-19T04:30:03;100025.50;;;22.68;66.25
25156;BME280;21913;52.456;13.634;2022-08-19T04:35:05;100012.38;;;22.66;66.09
25156;BME280;21913;52.456;13.634;2022-08-19T04:40:07;100021.13;;;22.67;66.28
25156;BME280;21913;52.456;13.634;2022-08-19T04:45:12;100028.19;;;22.66;66.45
25156;BME280;21913;52.456;13.634;2022-08-19T04:50:14;100024.69;;;22.66;66.37
25156;BME280;21913;52.456;13.634;2022-08-19T04:55:19;100033.47;;;22.66;66.49
25156;BME280;21913;52.456;13.634;2022-08-19T05:00:21;100036.09;;;22.66;66.33
25156;BME280;21913;52.456;13.634;2022-08-19T05:05:22;100035.25;;;22.66;66.21
25156;BME280;21913;52.456;13.634;2022-08-19T05:10:24;100036.19;;;22.65;66.21
25156;BME280;21913;52.456;13.634;2022-08-19T05:15:26;100046.75;;;22.65;66.19
25156;BME280;21913;52.456;13.634;2022-08-19T05:20:27;100050.31;;;22.64;66.33
25156;BME280;21913;52.456;13.634;2022-08-19T05:25:29;100047.66;;;22.64;66.28
25156;BME280;21913;52.456;13.634;2022-08-19T05:30:31;100046.81;;;22.63;66.43
25156;BME280;21913;52.456;13.634;2022-08-19T05:35:43;100043.25;;;22.64;66.29
25156;BME280;21913;52.456;13.634;2022-08-19T05:40:45;100040.69;;;22.63;66.40
25156;BME280;21913;52.456;13.634;2022-08-19T05:45:47;100045.13;;;22.62;66.35
25156;BME280;21913;52.456;13.634;2022-08-19T05:50:48;100031.94;;;22.62;66.27
25156;BME280;21913;52.456;13.634;2022-08-19T05:55:50;100034.56;;;22.62;66.13
25156;BME280;21913;52.456;13.634;2022-08-19T06:00:52;100039.84;;;22.62;66.37
25156;BME280;21913;52.456;13.634;2022-08-19T06:05:54;100030.19;;;22.61;66.18
25156;BME280;21913;52.456;13.634;2022-08-19T06:10:56;100025.78;;;22.62;66.46
25156;BME280;21913;52.456;13.634;2022-08-19T06:15:57;100032.84;;;22.61;66.49
25156;BME280;21913;52.456;13.634;2022-08-19T06:20:59;100026.72;;;22.61;66.43
25156;BME280;21913;52.456;13.634;2022-08-19T06:26:01;100022.28;;;22.61;66.29
25156;BME280;21913;52.456;13.634;2022-08-19T06:31:06;100030.19;;;22.61;66.47
25156;BME280;21913;52.456;13.634;2022-08-19T06:36:22;100037.25;;;22.61;66.33
25156;BME280;21913;52.456;13.634;2022-08-19T06:41:25;100022.38;;;22.60;66.44
25156;BME280;21913;52.456;13.634;2022-08-19T06:46:27;100025.94;;;22.58;66.44
25156;BME280;21913;52.456;13.634;2022-08-19T06:51:29;100028.59;;;22.58;66.35
25156;BME280;21913;52.456;13.634;2022-08-19T06:56:31;100026.81;;;22.59;66.24
25156;BME280;21913;52.456;13.634;2022-08-19T07:01:38;100041.78;;;22.58;66.12
25156;BME280;21913;52.456;13.634;2022-08-19T07:06:40;100047.91;;;22.59;66.45
25156;BME280;21913;52.456;13.634;2022-08-19T07:11:48;100039.97;;;22.59;66.18
25156;BME280;21913;52.456;13.634;2022-08-19T07:16:51;100044.41;;;22.58;66.35
25156;BME280;21913;52.456;13.634;2022-08-19T07:21:54;100046.19;;;22.58;66.50
25156;BME280;21913;52.456;13.634;2022-08-19T07:26:59;100057.59;;;22.58;66.17
25156;BME280;21913;52.456;13.634;2022-08-19T07:32:03;100069.06;;;22.57;66.59
25156;BME280;21913;52.456;13.634;2022-08-19T07:37:05;100074.34;;;22.57;66.32
25156;BME280;21913;52.456;13.634;2022-08-19T07:42:10;100083.09;;;22.58;66.39
25156;BME280;21913;52.456;13.634;2022-08-19T07:47:12;100090.09;;;22.59;66.48
25156;BME280;21913;52.456;13.634;2022-08-19T07:52:14;100096.22;;;22.60;66.52
25156;BME280;21913;52.456;13.634;2022-08-19T07:57:15;100090.00;;;22.61;66.74
25156;BME280;21913;52.456;13.634;2022-08-19T08:02:17;100091.69;;;22.62;66.92
25156;BME280;21913;52.456;13.634;2022-08-19T08:07:19;100096.97;;;22.62;66.80
25156;BME280;21913;52.456;13.634;2022-08-19T08:12:30;100103.06;;;22.64;66.80
25156;BME280;21913;52.456;13.634;2022-08-19T08:17:35;100098.63;;;22.64;67.01
25156;BME280;21913;52.456;13.634;2022-08-19T08:22:37;100102.19;;;22.63;66.65
25156;BME280;21913;52.456;13.634;2022-08-19T08:27:45;100103.91;;;22.64;66.78
25156;BME280;21913;52.456;13.634;2022-08-19T08:32:48;100104.03;;;22.61;66.65
25156;BME280;21913;52.456;13.634;2022-08-19T08:37:52;100103.19;;;22.61;66.75
25156;BME280;21913;52.456;13.634;2022-08-19T08:48:18;100103.19;;;22.61;66.76
25156;BME280;21913;52.456;13.634;2022-08-19T08:53:22;100105.81;;;22.61;66.99
25156;BME280;21913;52.456;13.634;2022-08-19T08:58:41;100108.41;;;22.62;67.01
25156;BME280;21913;52.456;13.634;2022-08-19T09:03:44;100095.22;;;22.62;66.98
25156;BME280;21913;52.456;13.634;2022-08-19T09:09:03;100102.19;;;22.63;67.04
25156;BME280;21913;52.456;13.634;2022-08-19T09:14:19;100115.38;;;22.63;67.12
25156;BME280;21913;52.456;13.634;2022-08-19T09:25:19;100106.44;;;22.66;67.04
25156;BME280;21913;52.456;13.634;2022-08-19T09:30:26;100102.03;;;22.66;67.13
25156;BME280;21913;52.456;13.634;2022-08-19T09:35:29;100109.09;;;22.66;67.21
25156;BME280;21913;52.456;13.634;2022-08-19T09:40:31;100106.44;;;22.66;67.20
25156;BME280;21913;52.456;13.634;2022-08-19T09:55:42;100103.06;;;22.64;67.32
25156;BME280;21913;52.456;13.634;2022-08-19T10:00:43;100107.47;;;22.63;67.18
25156;BME280;21913;52.456;13.634;2022-08-19T10:05:45;100100.50;;;22.62;67.22
25156;BME280;21913;52.456;13.634;2022-08-19T10:10:48;100101.34;;;22.63;67.14
25156;BME280;21913;52.456;13.634;2022-08-19T10:15:54;100101.34;;;22.63;67.02
25156;BME280;21913;52.456;13.634;2022-08-19T10:21:22;100090.78;;;22.63;67.23
25156;BME280;21913;52.456;13.634;2022-08-19T10:26:29;100091.69;;;22.62;67.13
25156;BME280;21913;52.456;13.634;2022-08-19T10:31:33;100090.84;;;22.61;67.10
25156;BME280;21913;52.456;13.634;2022-08-19T10:36:36;100077.66;;;22.61;66.99
25156;BME280;21913;52.456;13.634;2022-08-19T10:41:39;100092.63;;;22.61;67.13
25156;BME280;21913;52.456;13.634;2022-08-19T10:46:43;100082.94;;;22.61;67.28
25156;BME280;21913;52.456;13.634;2022-08-19T10:51:47;100081.25;;;22.60;67.22
25156;BME280;21913;52.456;13.634;2022-08-19T10:56:49;100082.09;;;22.61;67.22
25156;BME280;21913;52.456;13.634;2022-08-19T11:01:51;100078.59;;;22.60;67.22
25156;BME280;21913;52.456;13.634;2022-08-19T11:06:53;100061.94;;;22.60;67.26
25156;BME280;21913;52.456;13.634;2022-08-19T11:11:55;100055.81;;;22.59;67.26
25156;BME280;21913;52.456;13.634;2022-08-19T11:16:56;100061.94;;;22.60;67.31
25156;BME280;21913;52.456;13.634;2022-08-19T11:21:58;100056.66;;;22.60;67.33
25156;BME280;21913;52.456;13.634;2022-08-19T11:27:06;100047.91;;;22.59;67.45
25156;BME280;21913;52.456;13.634;2022-08-19T11:32:09;100057.59;;;22.58;67.53
25156;BME280;21913;52.456;13.634;2022-08-19T11:37:11;100043.47;;;22.60;67.46
25156;BME280;21913;52.456;13.634;2022-08-19T11:42:13;100044.41;;;22.58;67.30
25156;BME280;21913;52.456;13.634;2022-08-19T11:47:15;100040.91;;;22.58;67.47
25156;BME280;21913;52.456;13.634;2022-08-19T11:52:17;100042.72;;;22.57;67.24
25156;BME280;21913;52.456;13.634;2022-08-19T11:57:18;100045.75;;;22.67;61.14
25156;BME280;21913;52.456;13.634;2022-08-19T12:02:20;100040.78;;;22.78;59.49
25156;BME280;21913;52.456;13.634;2022-08-19T12:07:21;100042.63;;;22.76;60.41
25156;BME280;21913;52.456;13.634;2022-08-19T12:12:23;100040.22;;;22.72;61.15
25156;BME280;21913;52.456;13.634;2022-08-19T12:17:26;100042.22;;;22.67;61.99
25156;BME280;21913;52.456;13.634;2022-08-19T12:22:28;100035.34;;;22.64;62.66
25156;BME280;21913;52.456;13.634;2022-08-19T12:27:29;100026.72;;;22.61;63.24
25156;BME280;21913;52.456;13.634;2022-08-19T12:32:33;100026.81;;;22.59;63.67
25156;BME280;21913;52.456;13.634;2022-08-19T12:37:35;100023.31;;;22.58;63.86
25156;BME280;21913;52.456;13.634;2022-08-19T12:42:37;100016.34;;;22.57;63.99
25156;BME280;21913;52.456;13.634;2022-08-19T12:47:39;100004.94;;;22.57;64.14
25156;BME280;21913;52.456;13.634;2022-08-19T12:52:41;99990.91;;;22.56;64.23
25156;BME280;21913;52.456;13.634;2022-08-19T12:57:42;99995.31;;;22.56;64.63
25156;BME280;21913;52.456;13.634;2022-08-19T13:02:46;99992.75;;;22.54;64.78
25156;BME280;21913;52.456;13.634;2022-08-19T13:07:50;99985.69;;;22.55;64.98
25156;BME280;21913;52.456;13.634;2022-08-19T13:12:52;99986.53;;;22.55;65.07
25156;BME280;21913;52.456;13.634;2022-08-19T13:17:54;99994.44;;;22.55;65.13
25156;BME280;21913;52.456;13.634;2022-08-19T13:22:56;99993.53;;;22.56;64.94
25156;BME280;21913;52.456;13.634;2022-08-19T13:27:59;99997.09;;;22.55;65.19
25156;BME280;21913;52.456;13.634;2022-08-19T13:33:02;99991.81;;;22.55;65.50
25156;BME280;21913;52.456;13.634;2022-08-19T13:38:03;99976.84;;;22.56;64.23
25156;BME280;21913;52.456;13.634;2022-08-19T13:43:05;99971.50;;;22.75;60.99
25156;BME280;21913;52.456;13.634;2022-08-19T13:48:08;99974.91;;;22.77;62.27
25156;BME280;21913;52.456;13.634;2022-08-19T13:53:11;99971.59;;;22.73;62.71
25156;BME280;21913;52.456;13.634;2022-08-19T13:58:12;99971.81;;;22.69;63.11
25156;BME280;21913;52.456;13.634;2022-08-19T14:03:14;99972.06;;;22.64;63.52
25156;BME280;21913;52.456;13.634;2022-08-19T14:08:16;99968.66;;;22.62;64.07
25156;BME280;21913;52.456;13.634;2022-08-19T14:13:21;99973.03;;;22.62;63.96
25156;BME280;21913;52.456;13.634;2022-08-19T14:18:23;99976.63;;;22.61;64.30
25156;BME280;21913;52.456;13.634;2022-08-19T14:23:24;99976.72;;;22.59;64.61
25156;BME280;21913;52.456;13.634;2022-08-19T14:28:26;99984.63;;;22.59;64.71
25156;BME280;21913;52.456;13.634;2022-08-19T14:33:28;99990.91;;;22.56;64.55
25156;BME280;21913;52.456;13.634;2022-08-19T14:38:29;99987.34;;;22.57;65.06
25156;BME280;21913;52.456;13.634;2022-08-19T14:43:31;99989.13;;;22.57;64.90
25156;BME280;21913;52.456;13.634;2022-08-19T14:48:33;99979.47;;;22.56;65.22
25156;BME280;21913;52.456;13.634;2022-08-19T14:53:34;99982.13;;;22.56;65.16
25156;BME280;21913;52.456;13.634;2022-08-19T14:58:36;99987.38;;;22.56;65.44
25156;BME280;21913;52.456;13.634;2022-08-19T15:03:40;99982.13;;;22.56;65.11
25156;BME280;21913;52.456;13.634;2022-08-19T15:08:42;99978.63;;;22.55;65.14
25156;BME280;21913;52.456;13.634;2022-08-19T15:13:44;99976.94;;;22.54;65.44
25156;BME280;21913;52.456;13.634;2022-08-19T15:18:49;99981.28;;;22.55;65.31
25156;BME280;21913;52.456;13.634;2022-08-19T15:23:51;99992.75;;;22.54;65.63
25156;BME280;21913;52.456;13.634;2022-08-19T15:28:53;99997.16;;;22.54;65.67
25156;BME280;21913;52.456;13.634;2022-08-19T15:33:56;100001.59;;;22.53;65.80
25156;BME280;21913;52.456;13.634;2022-08-19T15:38:58;100003.28;;;22.54;65.72
25156;BME280;21913;52.456;13.634;2022-08-19T15:44:03;100011.22;;;22.54;65.90
25156;BME280;21913;52.456;13.634;2022-08-19T15:49:06;100014.78;;;22.53;65.81
25156;BME280;21913;52.456;13.634;2022-08-19T15:54:11;100015.53;;;22.55;65.97
25156;BME280;21913;52.456;13.634;2022-08-19T15:59:13;100012.06;;;22.55;65.83
25156;BME280;21913;52.456;13.634;2022-08-19T16:04:15;100014.78;;;22.53;65.79
25156;BME280;21913;52.456;13.634;2022-08-19T16:09:18;100017.41;;;22.53;66.03
25156;BME280;21913;52.456;13.634;2022-08-19T16:14:23;100022.69;;;22.53;66.08
25156;BME280;21913;52.456;13.634;2022-08-19T16:19:25;100025.31;;;22.53;65.81
25156;BME280;21913;52.456;13.634;2022-08-19T16:24:28;100028.91;;;22.52;66.00
25156;BME280;21913;52.456;13.634;2022-08-19T16:29:30;100029.75;;;22.53;65.89
25156;BME280;21913;52.456;13.634;2022-08-19T16:34:32;100029.84;;;22.51;65.91
25156;BME280;21913;52.456;13.634;2022-08-19T16:39:33;100030.69;;;22.52;66.14
25156;BME280;21913;52.456;13.634;2022-08-19T16:44:38;100029.84;;;22.51;66.00
25156;BME280;21913;52.456;13.634;2022-08-19T16:49:40;100023.63;;;22.52;66.04
25156;BME280;21913;52.456;13.634;2022-08-19T16:54:42;100021.97;;;22.50;66.12
25156;BME280;21913;52.456;13.634;2022-08-19T16:59:44;100029.84;;;22.51;66.17
25156;BME280;21913;52.456;13.634;2022-08-19T17:04:46;100035.09;;;22.51;66.19
25156;BME280;21913;52.456;13.634;2022-08-19T17:09:47;100028.97;;;22.51;66.04
25156;BME280;21913;52.456;13.634;2022-08-19T17:14:49;100026.34;;;22.51;65.99
25156;BME280;21913;52.456;13.634;2022-08-19T17:19:51;100025.47;;;22.50;66.12
25156;BME280;21913;52.456;13.634;2022-08-19T17:24:52;100024.63;;;22.50;66.32
25156;BME280;21913;52.456;13.634;2022-08-19T17:29:54;100016.69;;;22.50;66.24
25156;BME280;21913;52.456;13.634;2022-08-19T17:34:56;100016.69;;;22.50;66.50
25156;BME280;21913;52.456;13.634;2022-08-19T17:39:57;100015.00;;;22.49;66.24
25156;BME280;21913;52.456;13.634;2022-08-19T17:44:59;100013.22;;;22.49;66.24
25156;BME280;21913;52.456;13.634;2022-08-19T17:50:08;100009.66;;;22.50;66.53
25156;BME280;21913;52.456;13.634;2022-08-19T17:55:10;100016.69;;;22.50;66.56
25156;BME280;21913;52.456;13.634;2022-08-19T18:00:15;100013.22;;;22.49;66.38
25156;BME280;21913;52.456;13.634;2022-08-19T18:05:18;100010.56;;;22.49;66.26
25156;BME280;21913;52.456;13.634;2022-08-19T18:10:21;100008.78;;;22.50;66.34
25156;BME280;21913;52.456;13.634;2022-08-19T18:15:23;100008.78;;;22.50;66.49
25156;BME280;21913;52.456;13.634;2022-08-19T18:20:25;99997.47;;;22.48;66.41
25156;BME280;21913;52.456;13.634;2022-08-19T18:25:27;100007.09;;;22.49;66.25
25156;BME280;21913;52.456;13.634;2022-08-19T18:30:29;100014.16;;;22.48;66.37
25156;BME280;21913;52.456;13.634;2022-08-19T18:35:31;100013.31;;;22.48;66.36
25156;BME280;21913;52.456;13.634;2022-08-19T18:40:33;100015.94;;;22.48;66.26
25156;BME280;21913;52.456;13.634;2022-08-19T18:45:34;100019.41;;;22.48;66.43
25156;BME280;21913;52.456;13.634;2022-08-19T18:50:36;100036.09;;;22.49;66.69
25156;BME280;21913;52.456;13.634;2022-08-19T18:55:38;100037.88;;;22.48;66.48
25156;BME280;21913;52.456;13.634;2022-08-19T19:00:39;100046.72;;;22.47;66.37
25156;BME280;21913;52.456;13.634;2022-08-19T19:05:41;100052.84;;;22.48;66.50
25156;BME280;21913;52.456;13.634;2022-08-19T19:10:43;100065.16;;;22.47;66.61
25156;BME280;21913;52.456;13.634;2022-08-19T19:15:44;100068.75;;;22.46;66.59
25156;BME280;21913;52.456;13.634;2022-08-19T19:20:46;100074.88;;;22.47;66.73
25156;BME280;21913;52.456;13.634;2022-08-19T19:25:48;100083.63;;;22.47;66.65
25156;BME280;21913;52.456;13.634;2022-08-19T19:30:52;100090.69;;;22.47;66.82
25156;BME280;21913;52.456;13.634;2022-08-19T19:35:54;100088.97;;;22.46;66.82
25156;BME280;21913;52.456;13.634;2022-08-19T19:40:56;100093.31;;;22.47;66.80
25156;BME280;21913;52.456;13.634;2022-08-19T19:45:58;100104.81;;;22.46;66.77
25156;BME280;21913;52.456;13.634;2022-08-19T19:51:02;100104.81;;;22.46;66.80
25156;BME280;21913;52.456;13.634;2022-08-19T19:56:04;100116.19;;;22.46;66.93
25156;BME280;21913;52.456;13.634;2022-08-19T20:01:07;100125.91;;;22.46;66.87
25156;BME280;21913;52.456;13.634;2022-08-19T20:06:11;100125.00;;;22.45;67.00
25156;BME280;21913;52.456;13.634;2022-08-19T20:11:29;100132.00;;;22.46;66.98
25156;BME280;21913;52.456;13.634;2022-08-19T20:16:31;100134.69;;;22.45;66.80
25156;BME280;21913;52.456;13.634;2022-08-19T20:21:33;100137.28;;;22.46;66.74
25156;BME280;21913;52.456;13.634;2022-08-19T20:26:35;100138.19;;;22.45;66.75
25156;BME280;21913;52.456;13.634;2022-08-19T20:31:37;100147.88;;;22.45;67.13
25156;BME280;21913;52.456;13.634;2022-08-19T20:36:40;100146.09;;;22.45;66.95
25156;BME280;21913;52.456;13.634;2022-08-19T20:41:41;100151.38;;;22.45;66.82
25156;BME280;21913;52.456;13.634;2022-08-19T20:46:43;100154.94;;;22.44;67.24
25156;BME280;21913;52.456;13.634;2022-08-19T20:51:45;100158.44;;;22.45;67.14
25156;BME280;21913;52.456;13.634;2022-08-19T20:56:46;100166.34;;;22.45;67.23
25156;BME280;21913;52.456;13.634;2022-08-19T21:01:49;100168.97;;;22.45;67.15
25156;BME280;21913;52.456;13.634;2022-08-19T21:06:51;100166.34;;;22.45;67.05
25156;BME280;21913;52.456;13.634;2022-08-19T21:11:52;100165.47;;;22.44;67.00
25156;BME280;21913;52.456;13.634;2022-08-19T21:16:54;100167.28;;;22.44;67.19
25156;BME280;21913;52.456;13.634;2022-08-19T21:21:55;100165.47;;;22.44;67.17
25156;BME280;21913;52.456;13.634;2022-08-19T21:26:57;100165.47;;;22.44;67.05
25156;BME280;21913;52.456;13.634;2022-08-19T21:31:59;100169.91;;;22.44;67.26
25156;BME280;21913;52.456;13.634;2022-08-19T21:37:01;100170.75;;;22.44;67.24
25156;BME280;21913;52.456;13.634;2022-08-19T21:42:03;100168.13;;;22.44;67.05
25156;BME280;21913;52.456;13.634;2022-08-19T21:47:05;100163.78;;;22.43;67.39
25156;BME280;21913;52.456;13.634;2022-08-19T21:52:06;100168.97;;;22.45;67.13
25156;BME280;21913;52.456;13.634;2022-08-19T21:57:08;100176.03;;;22.44;67.43
25156;BME280;21913;52.456;13.634;2022-08-19T22:02:13;100182.16;;;22.45;67.46
25156;BME280;21913;52.456;13.634;2022-08-19T22:07:21;100176.97;;;22.43;67.18
25156;BME280;21913;52.456;13.634;2022-08-19T22:12:29;100188.34;;;22.44;67.24
25156;BME280;21913;52.456;13.634;2022-08-19T22:17:31;100188.34;;;22.44;67.29
25156;BME280;21913;52.456;13.634;2022-08-19T22:22:33;100180.53;;;22.42;67.35
25156;BME280;21913;52.456;13.634;2022-08-19T22:27:35;100184.78;;;22.45;67.46
25156;BME280;21913;52.456;13.634;2022-08-19T22:32:37;100184.88;;;22.43;67.45
25156;BME280;21913;52.456;13.634;2022-08-19T22:37:38;100184.03;;;22.43;67.20
25156;BME280;21913;52.456;13.634;2022-08-19T22:42:40;100182.22;;;22.43;67.25
25156;BME280;21913;52.456;13.634;2022-08-19T22:47:42;100185.72;;;22.44;67.25
25156;BME280;21913;52.456;13.634;2022-08-19T22:52:43;100180.44;;;22.44;67.41
25156;BME280;21913;52.456;13.634;2022-08-19T22:57:45;100187.50;;;22.43;67.34
25156;BME280;21913;52.456;13.634;2022-08-19T23:02:47;100185.72;;;22.44;67.50
25156;BME280;21913;52.456;13.634;2022-08-19T23:07:49;100175.19;;;22.44;67.51
25156;BME280;21913;52.456;13.634;2022-08-19T23:12:51;100177.91;;;22.42;67.47
25156;BME280;21913;52.456;13.634;2022-08-19T23:17:55;100187.50;;;22.43;67.35
25156;BME280;21913;52.456;13.634;2022-08-19T23:22:57;100181.38;;;22.43;67.51
25156;BME280;21913;52.456;13.634;2022-08-19T23:27:59;100180.53;;;22.42;67.46
25156;BME280;21913;52.456;13.634;2022-08-19T23:33:05;100172.63;;;22.42;67.47
25156;BME280;21913;52.456;13.634;2022-08-19T23:38:10;100167.34;;;22.42;67.52
25156;BME280;21913;52.456;13.634;2022-08-19T23:43:11;100162.06;;;22.42;67.57
25156;BME280;21913;52.456;13.634;2022-08-19T23:48:15;100150.69;;;22.42;67.45
25156;BME280;21913;52.456;13.634;2022-08-19T23:53:17;100155.94;;;22.42;67.55
25156;BME280;21913;52.456;13.634;2022-08-19T23:58:20;100149.84;;;22.41;67.38
